Hlavní strana
METAR-TAF:

METAR-TAF

Letiště :

Yaoundé, Kamerun

zeměpisná šířka: 03-50N, zeměpisná délka: 011-31E, výška: 751 m

Aktuální stav počasí

Zpráva byla vytvořena před 36 minutami, v 22:00 UTC
Jižní vítr 3 kt, proměnlivý mezi jihovýchodním a jihojihozápadním
Teplota 22°C
Vlhkost vzduchu 94%
Tlak 1017 hPa
Viditelnost: 8000 m
Skoro jasno ve výšce 600 ft

METAR: FKYS 222200Z 17003KT 140V200 8000 FEW006 22/21 Q1017 BECMG BKN006

Čas: 23:36 (22:36 UTC)

Předpověď počasí

Zpráva byla vytvořena před 5 hodinami a 36 minutami, v 17:00 UTC
Předpověď platná od 22 v 18 UTC do 23 v 18 UTC
Západojihozápadní vítr 3 kt
Viditelnost: 8000 m
Oblačno až skoro zataženo ve výšce 600 ft
Skoro jasno ve výšce 1600 ft, Cumulonimbus.
Změna
od 22 v 20 UTC do 22 v 22 UTC
Oblačno až skoro zataženo ve výšce 600 ft
Pravděpodobnost 30%
od 23 v 03 UTC do 23 v 07 UTC
Viditelnost: 3000 m
kouřmo

TAF: FKYS 221700Z 2218/2318 24003KT 8000 BKN006 FEW016CB BECMG 2220/2222 BKN006 PROB30 2303/2307 3000 BR

Stav a předpovědi počasí z více než 4 000 letišť (zprávy METAR a TAF).

Červené a žluté tečky na mapě představují dostupné meteorologické stanice.

Když kurzor umístíte na tečku, zobrazí se název stanice.

Pak kliknutím zobrazíte stav a předpověď počasí.

Chcete-li změnit mapu, kliknutím na zelené tlačítko se znaménkem +mapu přiblížíte, kliknutím na zelené tlačítko se znaménkem – mapu oddálíte a kliknutím na zelené šipky přejdete na sousední mapy.


METAR-TAF: